AQQ10 IFIS: Internet Flight Information System
logo dgac
Martes 06 de Diciembre del 2022
Buscar por aerodromo o helipuerto
Ingrese nombre de aeródromo, localidad o designador OACI:
METAR del 06-12-2022 a las 07:00 UTC
Para mayor información visite www.meteochile.cl
METAR SCIC 060700Z AUTO 19005KT //// R/////// // NCD 15/07 Q1014
Viento: dirección 190 grados, velocidad 5 nudos
Temperatura: 15 °C
Rocío: 7 °C
Humedad_relativa: 59%
Presión: 1014 hPa
METAR del 06-12-2022 a las 06:00 UTC
Para mayor información visite www.meteochile.cl
METAR SCIC 060600Z AUTO 18004KT //// R/////// // NCD 16/06 Q1014
Viento: dirección 180 grados, velocidad 4 nudos
Temperatura: 16 °C
Rocío: 6 °C
Humedad_relativa: 51%
Presión: 1014 hPa
METAR del 06-12-2022 a las 05:00 UTC
Para mayor información visite www.meteochile.cl
METAR SCIC 060500Z AUTO 18006KT //// R/////// // NCD 18/06 Q1014
Viento: dirección 180 grados, velocidad 6 nudos
Temperatura: 18 °C
Rocío: 6 °C
Humedad_relativa: 45%
Presión: 1014 hPa
METAR del 06-12-2022 a las 04:00 UTC
Para mayor información visite www.meteochile.cl
METAR SCIC 060400Z AUTO 19006KT //// R/////// // NCD 19/05 Q1014
Viento: dirección 190 grados, velocidad 6 nudos
Temperatura: 19 °C
Rocío: 5 °C
Humedad_relativa: 40%
Presión: 1014 hPa
METAR del 06-12-2022 a las 03:00 UTC
Para mayor información visite www.meteochile.cl
METAR SCIC 060300Z AUTO 19005KT //// R/////// // NCD 21/04 Q1014
Viento: dirección 190 grados, velocidad 5 nudos
Temperatura: 21 °C
Rocío: 4 °C
Humedad_relativa: 33%
Presión: 1014 hPa
METAR del 06-12-2022 a las 02:00 UTC
Para mayor información visite www.meteochile.cl
METAR SCIC 060200Z AUTO 22006KT 170V250 //// R/////// // NCD 23/05 Q1014
Viento: dirección 220 grados, velocidad 6 nudos
Viento con dirección variable entre 170 y 250 grados
Temperatura: 23 °C
Rocío: 5 °C
Humedad_relativa: 31%
Presión: 1014 hPa
METAR del 06-12-2022 a las 01:00 UTC
Para mayor información visite www.meteochile.cl
METAR SCIC 060100Z AUTO 25005KT 200V280 //// R/////// // NCD 24/05 Q1013
Viento: dirección 250 grados, velocidad 5 nudos
Viento con dirección variable entre 200 y 280 grados
Temperatura: 24 °C
Rocío: 5 °C
Humedad_relativa: 29%
Presión: 1013 hPa
METAR del 06-12-2022 a las 00:00 UTC
Para mayor información visite www.meteochile.cl
METAR SCIC 060000Z 26007KT CAVOK 26/04 Q1012
Viento: dirección 260 grados, velocidad 7 nudos
Visibilidad: 10 km o más,
    sin nubes bajo los 5.000 pies o bajo del MSA (Mínimo de Seguridad del Aeródromo),
    sin cumulonimbus, y sin fenómenos de tiempo significativo en el aeródromo o alrededores
Temperatura: 26 °C
Rocío: 4 °C
Humedad_relativa: 24%
Presión: 1012 hPa
METAR del 05-12-2022 a las 23:00 UTC
Para mayor información visite www.meteochile.cl
METAR SCIC 052300Z 27010KT CAVOK 28/05 Q1012
Viento: dirección 270 grados, velocidad 10 nudos
Visibilidad: 10 km o más,
    sin nubes bajo los 5.000 pies o bajo del MSA (Mínimo de Seguridad del Aeródromo),
    sin cumulonimbus, y sin fenómenos de tiempo significativo en el aeródromo o alrededores
Temperatura: 28 °C
Rocío: 5 °C
Humedad_relativa: 23%
Presión: 1012 hPa
METAR del 05-12-2022 a las 22:00 UTC
Para mayor información visite www.meteochile.cl
METAR SCIC 052200Z 26009KT CAVOK 31/05 Q1011
Viento: dirección 260 grados, velocidad 9 nudos
Visibilidad: 10 km o más,
    sin nubes bajo los 5.000 pies o bajo del MSA (Mínimo de Seguridad del Aeródromo),
    sin cumulonimbus, y sin fenómenos de tiempo significativo en el aeródromo o alrededores
Temperatura: 31 °C
Rocío: 5 °C
Humedad_relativa: 19%
Presión: 1011 hPa